Time;durP1;ratioP1;P1;durP2;ratioP2;P2;SDS_P1;SDS_P2;PMS_P1;PMS_P2;Temp;Humidity;BMP_temperature;BMP_pressure;BME280_temperature;BME280_humidity;BME280_pressure;Samples;Min_cycle;Max_cycle;Signal;HPM_P1;HPM_P2
2023/10/23 00:00:39;;;;;;;3.45;1.55;;;17.40;59.90;;;;;;5092811;28;20205;-60
2023/10/23 00:03:06;;;;;;;2.95;1.40;;;17.40;59.80;;;;;;5092439;28;20225;-62
2023/10/23 00:05:34;;;;;;;2.95;1.25;;;17.40;59.80;;;;;;5093078;28;20225;-62
2023/10/23 00:08:03;;;;;;;3.22;1.60;;;17.40;59.80;;;;;;5092828;28;20267;-62
2023/10/23 00:10:30;;;;;;;4.13;1.40;;;17.40;59.80;;;;;;5092249;28;20563;-64
2023/10/23 00:12:57;;;;;;;2.58;1.48;;;17.40;59.80;;;;;;5092992;28;20225;-63
2023/10/23 00:15:24;;;;;;;3.65;1.23;;;17.40;59.80;;;;;;5092660;28;20282;-63
2023/10/23 00:17:51;;;;;;;3.80;1.65;;;17.40;59.80;;;;;;5092240;28;20214;-64
2023/10/23 00:20:18;;;;;;;2.60;1.75;;;17.40;59.80;;;;;;5092604;28;20193;-64
2023/10/23 00:22:44;;;;;;;2.70;1.65;;;17.40;59.80;;;;;;5092720;28;20218;-63
2023/10/23 00:25:13;;;;;;;3.33;1.67;;;17.40;59.80;;;;;;5092196;28;20217;-63
2023/10/23 00:27:40;;;;;;;2.08;1.30;;;17.40;59.80;;;;;;5091909;28;20225;-64
2023/10/23 00:30:08;;;;;;;2.33;1.40;;;17.40;59.80;;;;;;5092046;28;20272;-62
2023/10/23 00:32:35;;;;;;;4.93;1.65;;;17.40;59.80;;;;;;5092123;28;20213;-62
2023/10/23 00:35:01;;;;;;;4.43;1.70;;;17.40;59.80;;;;;;5092030;28;20808;-63
2023/10/23 00:37:29;;;;;;;8.00;1.75;;;17.40;59.80;;;;;;5092339;28;20305;-62
2023/10/23 00:39:55;;;;;;;3.30;1.48;;;17.40;59.80;;;;;;5092037;28;20277;-63
2023/10/23 00:42:24;;;;;;;3.20;1.45;;;17.40;59.80;;;;;;5092022;28;20750;-63
2023/10/23 00:44:50;;;;;;;2.25;1.40;;;17.40;59.80;;;;;;5092436;28;20190;-63
2023/10/23 00:47:18;;;;;;;2.35;1.40;;;17.40;59.80;;;;;;5091619;28;20229;-63
2023/10/23 00:49:46;;;;;;;2.65;1.58;;;17.40;59.80;;;;;;5092310;28;20226;-62
2023/10/23 00:52:13;;;;;;;3.70;1.55;;;17.40;59.80;;;;;;5092355;28;20217;-62
2023/10/23 00:54:41;;;;;;;2.53;1.60;;;17.40;59.80;;;;;;5091580;28;20656;-62
2023/10/23 00:57:08;;;;;;;1.92;1.30;;;17.40;59.80;;;;;;5092184;28;20289;-64
2023/10/23 00:59:37;;;;;;;2.88;1.48;;;17.40;59.80;;;;;;5092208;28;20273;-63
2023/10/23 01:02:05;;;;;;;4.05;1.60;;;17.40;59.80;;;;;;5091841;28;20273;-63
2023/10/23 01:04:32;;;;;;;2.78;1.58;;;17.40;59.80;;;;;;5092148;28;20190;-62
2023/10/23 01:06:59;;;;;;;3.45;1.67;;;17.40;59.80;;;;;;5092032;28;20300;-62
2023/10/23 01:09:26;;;;;;;3.33;1.63;;;17.40;59.80;;;;;;5091810;28;20555;-62
2023/10/23 01:11:53;;;;;;;4.10;1.70;;;17.40;59.80;;;;;;5092039;28;20265;-61
2023/10/23 01:14:20;;;;;;;3.42;1.60;;;17.40;59.80;;;;;;5092225;28;20288;-60
2023/10/23 01:16:48;;;;;;;3.90;1.40;;;17.40;59.80;;;;;;5091717;28;20186;-61
2023/10/23 01:19:15;;;;;;;4.50;1.60;;;17.40;59.70;;;;;;5092209;28;20305;-62
2023/10/23 01:21:42;;;;;;;4.30;1.75;;;17.40;59.80;;;;;;5092003;28;20190;-63
2023/10/23 01:24:12;;;;;;;2.60;1.40;;;17.40;59.80;;;;;;5091594;28;20718;-63
2023/10/23 01:26:40;;;;;;;4.70;1.65;;;17.40;59.80;;;;;;5091626;28;20309;-64
2023/10/23 01:29:07;;;;;;;2.35;1.50;;;17.40;59.70;;;;;;5092173;28;20297;-62
2023/10/23 01:31:34;;;;;;;4.68;1.90;;;17.40;59.80;;;;;;5091761;28;20273;-64
2023/10/23 01:34:00;;;;;;;3.60;1.50;;;17.40;59.70;;;;;;5091694;28;20264;-63
2023/10/23 01:36:27;;;;;;;3.40;1.65;;;17.40;59.70;;;;;;5092284;28;20200;-63
2023/10/23 01:38:54;;;;;;;5.90;1.70;;;17.40;59.80;;;;;;5091454;28;20710;-63
2023/10/23 01:41:21;;;;;;;2.35;1.38;;;17.40;59.70;;;;;;5095649;28;20198;-63
2023/10/23 01:43:49;;;;;;;2.75;1.27;;;17.40;59.70;;;;;;5095533;28;20317;-63
2023/10/23 01:46:16;;;;;;;2.90;1.67;;;17.40;59.70;;;;;;5095439;28;20218;-63
2023/10/23 01:48:43;;;;;;;2.38;1.45;;;17.40;59.70;;;;;;5095045;28;20703;-61
2023/10/23 01:51:10;;;;;;;3.03;1.40;;;17.40;60.50;;;;;;5095406;28;20186;-60
2023/10/23 01:53:37;;;;;;;1.75;1.27;;;17.40;59.70;;;;;;5094725;28;20702;-62
2023/10/23 01:56:08;;;;;;;4.72;1.58;;;17.40;59.70;;;;;;5095067;28;20644;-64
2023/10/23 01:58:35;;;;;;;3.45;1.63;;;17.40;59.80;;;;;;5095371;28;20214;-62
2023/10/23 02:01:03;;;;;;;3.78;1.48;;;17.40;59.70;;;;;;5094898;28;20269;-62
2023/10/23 02:03:32;;;;;;;3.10;1.50;;;17.40;59.70;;;;;;5095116;28;20226;-63
2023/10/23 02:05:59;;;;;;;2.15;1.48;;;17.40;59.70;;;;;;5095049;28;20214;-63
2023/10/23 02:08:25;;;;;;;4.63;1.58;;;17.40;59.70;;;;;;5094482;28;20767;-63
2023/10/23 02:10:52;;;;;;;2.88;1.52;;;17.40;59.70;;;;;;5095090;28;20193;-63
2023/10/23 02:13:20;;;;;;;3.83;1.55;;;17.40;59.70;;;;;;5095124;28;20236;-62
2023/10/23 02:15:47;;;;;;;2.28;1.40;;;17.40;59.70;;;;;;5094649;28;20265;-63
2023/10/23 02:18:15;;;;;;;5.22;1.70;;;17.40;59.70;;;;;;5094739;28;20214;-63
2023/10/23 02:20:42;;;;;;;3.67;1.52;;;17.40;59.70;;;;;;5094809;28;20189;-64
2023/10/23 02:23:09;;;;;;;4.35;1.95;;;17.40;59.70;;;;;;5094524;28;20297;-64
2023/10/23 02:25:36;;;;;;;2.33;1.42;;;17.40;59.70;;;;;;5094392;28;20186;-62
2023/10/23 02:28:04;;;;;;;3.03;1.20;;;17.40;59.70;;;;;;5094711;28;20282;-62
2023/10/23 02:30:31;;;;;;;3.80;1.50;;;17.40;59.70;;;;;;5094030;28;20675;-63
2023/10/23 02:32:58;;;;;;;2.95;1.48;;;17.40;59.70;;;;;;5094377;28;20218;-63
2023/10/23 02:35:26;;;;;;;4.88;2.00;;;17.40;59.70;;;;;;5094578;28;20187;-64
2023/10/23 02:37:53;;;;;;;3.78;1.40;;;17.40;59.70;;;;;;5093867;28;20596;-64
2023/10/23 02:40:20;;;;;;;6.70;1.92;;;17.40;59.70;;;;;;5094270;28;20196;-63
2023/10/23 02:42:46;;;;;;;3.20;1.60;;;17.40;59.70;;;;;;5094311;28;20301;-63
2023/10/23 02:45:13;;;;;;;3.13;1.63;;;17.40;59.70;;;;;;5093798;28;20666;-63
2023/10/23 02:47:40;;;;;;;4.47;1.40;;;17.40;59.70;;;;;;5094102;28;20245;-63
2023/10/23 02:50:08;;;;;;;2.65;1.67;;;17.40;59.70;;;;;;5094313;28;20273;-63
2023/10/23 02:52:36;;;;;;;1.55;1.33;;;17.40;59.70;;;;;;5092700;28;20581;-63
2023/10/23 02:55:04;;;;;;;3.60;1.63;;;17.40;59.70;;;;;;5094156;28;20186;-64
2023/10/23 02:57:31;;;;;;;3.95;1.58;;;17.40;59.70;;;;;;5094057;28;20263;-60
2023/10/23 02:59:58;;;;;;;4.75;1.50;;;17.40;59.70;;;;;;5093471;28;20190;-63
2023/10/23 03:02:25;;;;;;;2.45;1.33;;;17.40;59.70;;;;;;5093674;28;20696;-62
2023/10/23 03:04:52;;;;;;;5.22;1.50;;;17.40;59.70;;;;;;5093682;28;20226;-62
2023/10/23 03:07:18;;;;;;;3.58;1.70;;;17.40;59.70;;;;;;5093154;28;20220;-62
2023/10/23 03:09:47;;;;;;;6.07;2.00;;;17.40;59.70;;;;;;5093894;28;20182;-63
2023/10/23 03:12:13;;;;;;;3.03;1.70;;;17.40;59.70;;;;;;5093834;28;20196;-63
2023/10/23 03:14:40;;;;;;;2.20;1.45;;;17.40;59.70;;;;;;5093428;28;20276;-63
2023/10/23 03:17:08;;;;;;;3.58;1.30;;;17.40;59.70;;;;;;5093385;28;20652;-63
2023/10/23 03:19:35;;;;;;;3.67;1.42;;;17.40;59.70;;;;;;5093663;28;20526;-62
2023/10/23 03:22:02;;;;;;;3.28;1.52;;;17.40;59.70;;;;;;5093289;28;20190;-62
2023/10/23 03:24:29;;;;;;;2.45;1.52;;;17.40;59.70;;;;;;5093637;28;20533;-63
2023/10/23 03:26:58;;;;;;;2.63;1.30;;;17.40;59.70;;;;;;5093246;28;20218;-63
2023/10/23 03:29:25;;;;;;;3.63;1.63;;;17.40;59.70;;;;;;5093309;28;20241;-63
2023/10/23 03:31:51;;;;;;;3.03;1.45;;;17.40;60.40;;;;;;5093134;28;20640;-62
2023/10/23 03:34:18;;;;;;;2.80;1.55;;;17.30;59.60;;;;;;5093337;28;20272;-63
2023/10/23 03:36:45;;;;;;;4.05;1.70;;;17.30;59.60;;;;;;5092954;28;20644;-63
2023/10/23 03:39:12;;;;;;;5.95;1.90;;;17.30;59.60;;;;;;5094939;28;20253;-64
2023/10/23 03:41:39;;;;;;;2.65;1.58;;;17.30;59.60;;;;;;5113369;28;20673;-59
2023/10/23 03:44:08;;;;;;;3.08;1.45;;;17.30;59.60;;;;;;5113007;28;20209;-63
2023/10/23 03:46:34;;;;;;;3.15;1.70;;;17.30;59.60;;;;;;5113165;28;20213;-62
2023/10/23 03:49:02;;;;;;;4.50;1.63;;;17.30;59.60;;;;;;5113403;28;20221;-64
2023/10/23 03:51:29;;;;;;;3.92;1.48;;;17.30;59.60;;;;;;5113287;28;20190;-63
2023/10/23 03:53:55;;;;;;;2.53;1.48;;;17.30;59.60;;;;;;5113391;28;20245;-64
2023/10/23 03:56:22;;;;;;;4.15;1.80;;;17.30;59.70;;;;;;5113146;28;20196;-63
2023/10/23 03:58:49;;;;;;;3.72;1.55;;;17.30;59.60;;;;;;5113091;28;20215;-62
2023/10/23 04:01:17;;;;;;;2.47;1.23;;;17.30;59.60;;;;;;5113065;28;20673;-64
2023/10/23 04:03:44;;;;;;;4.50;1.67;;;17.30;59.70;;;;;;5113100;28;20213;-63
2023/10/23 04:06:11;;;;;;;4.22;1.65;;;17.30;59.60;;;;;;5112491;28;20280;-63
2023/10/23 04:08:39;;;;;;;2.75;1.50;;;17.30;59.70;;;;;;5113416;28;20213;-62
2023/10/23 04:11:06;;;;;;;3.33;1.30;;;17.30;59.60;;;;;;5113221;28;20194;-62
2023/10/23 04:13:34;;;;;;;2.53;1.40;;;17.30;59.70;;;;;;5112562;28;20708;-63
2023/10/23 04:16:02;;;;;;;2.78;1.48;;;17.30;59.70;;;;;;5112827;28;20551;-63
2023/10/23 04:18:30;;;;;;;3.78;1.65;;;17.30;59.60;;;;;;5112977;28;20220;-62
2023/10/23 04:21:07;;;;;;;3.47;1.73;;;17.30;59.70;;;;;;5112606;28;20181;-63
2023/10/23 04:23:35;;;;;;;3.15;1.40;;;17.30;59.70;;;;;;5112635;28;20273;-64
2023/10/23 04:26:03;;;;;;;4.28;1.50;;;17.30;59.70;;;;;;5112624;28;20749;-64
2023/10/23 04:28:30;;;;;;;3.10;1.10;;;17.30;59.70;;;;;;5112627;28;20601;-63
2023/10/23 04:30:57;;;;;;;4.18;1.50;;;17.30;59.70;;;;;;5112908;28;20192;-62
2023/10/23 04:33:25;;;;;;;3.90;1.83;;;17.30;59.70;;;;;;5112653;28;20263;-63
2023/10/23 04:35:54;;;;;;;3.33;1.42;;;17.30;59.70;;;;;;5112682;28;20273;-63
2023/10/23 04:38:22;;;;;;;4.05;1.52;;;17.30;59.70;;;;;;5113262;28;20315;-63
2023/10/23 04:40:52;;;;;;;3.63;1.55;;;17.30;59.70;;;;;;5112470;28;20647;-62
2023/10/23 04:43:21;;;;;;;2.42;1.50;;;17.30;60.40;;;;;;5112238;28;20208;-63
2023/10/23 04:45:48;;;;;;;2.95;1.50;;;17.30;59.70;;;;;;5112778;28;20192;-62
2023/10/23 04:48:15;;;;;;;5.15;1.67;;;17.30;59.70;;;;;;5112737;28;20233;-63
2023/10/23 04:50:42;;;;;;;2.75;1.50;;;17.30;59.70;;;;;;5112391;28;20275;-63
2023/10/23 04:53:10;;;;;;;3.47;1.40;;;17.30;59.70;;;;;;5112779;28;20249;-62
2023/10/23 04:55:39;;;;;;;3.05;1.70;;;17.30;59.70;;;;;;5112646;28;20182;-62
2023/10/23 04:58:07;;;;;;;4.40;1.40;;;17.30;59.70;;;;;;5112266;28;20300;-63
2023/10/23 05:00:36;;;;;;;3.53;1.50;;;17.30;59.70;;;;;;5112627;28;20197;-64
2023/10/23 05:03:03;;;;;;;2.85;1.67;;;17.30;59.70;;;;;;5112530;28;20308;-61
2023/10/23 05:05:30;;;;;;;4.13;1.65;;;17.30;59.70;;;;;;5112244;28;20208;-63
2023/10/23 05:07:57;;;;;;;5.60;1.60;;;17.30;59.70;;;;;;5112672;28;20224;-63
2023/10/23 05:10:25;;;;;;;3.40;1.40;;;17.30;59.70;;;;;;5112485;28;20189;-62
2023/10/23 05:12:53;;;;;;;5.82;1.88;;;17.30;59.80;;;;;;5112093;28;20217;-62
2023/10/23 05:15:20;;;;;;;2.28;1.63;;;17.30;59.70;;;;;;5114669;28;20235;-62
2023/10/23 05:17:47;;;;;;;3.10;1.60;;;17.30;59.80;;;;;;5116116;28;20220;-63
2023/10/23 05:20:14;;;;;;;1.98;1.35;;;17.30;59.70;;;;;;5116109;28;20223;-63
2023/10/23 05:22:41;;;;;;;3.20;1.50;;;17.30;59.90;;;;;;5116376;28;20582;-62
2023/10/23 05:25:09;;;;;;;3.38;1.40;;;17.30;59.80;;;;;;5115988;28;20746;-63
2023/10/23 05:27:37;;;;;;;2.03;1.40;;;17.30;59.80;;;;;;5115587;28;20212;-63
2023/10/23 05:30:06;;;;;;;3.60;1.73;;;17.30;59.80;;;;;;5116102;28;20276;-62
2023/10/23 05:32:34;;;;;;;3.58;1.67;;;17.30;59.80;;;;;;5116357;28;20272;-63
2023/10/23 05:35:01;;;;;;;5.47;1.60;;;17.30;59.80;;;;;;5115484;28;20229;-63
2023/10/23 05:37:28;;;;;;;2.78;1.27;;;17.30;59.80;;;;;;5116015;28;20197;-63
2023/10/23 05:39:55;;;;;;;3.13;1.48;;;17.30;60.60;;;;;;5115752;28;20562;-63
2023/10/23 05:42:22;;;;;;;4.28;1.92;;;17.30;59.80;;;;;;5115225;28;20189;-61
2023/10/23 05:44:52;;;;;;;3.60;1.58;;;17.30;59.80;;;;;;5115980;28;20185;-63
2023/10/23 05:47:18;;;;;;;5.70;1.80;;;17.30;59.80;;;;;;5115817;28;20223;-62
2023/10/23 05:49:45;;;;;;;3.30;1.80;;;17.20;59.70;;;;;;5115464;28;20209;-63
2023/10/23 05:52:12;;;;;;;4.45;1.50;;;17.30;59.90;;;;;;5115922;28;20618;-61
2023/10/23 05:54:39;;;;;;;3.60;1.67;;;17.30;59.80;;;;;;5115357;28;20703;-62
2023/10/23 05:57:06;;;;;;;4.00;1.90;;;17.30;59.90;;;;;;5115297;28;20181;-63
2023/10/23 05:59:33;;;;;;;3.97;1.60;;;17.20;59.80;;;;;;5115787;28;20591;-63
2023/10/23 06:02:03;;;;;;;5.72;1.88;;;17.20;59.80;;;;;;5115897;28;20181;-62
2023/10/23 06:04:30;;;;;;;4.60;1.70;;;17.30;59.80;;;;;;5115147;28;20581;-63
2023/10/23 06:06:57;;;;;;;2.65;1.70;;;17.30;59.90;;;;;;5115465;28;20189;-63
2023/10/23 06:09:24;;;;;;;3.15;1.70;;;17.20;59.80;;;;;;5115753;28;20221;-63
2023/10/23 06:11:50;;;;;;;3.05;1.77;;;17.20;59.80;;;;;;5115072;28;20558;-64
2023/10/23 06:14:17;;;;;;;3.40;1.70;;;17.20;59.80;;;;;;5115374;28;20216;-63
2023/10/23 06:16:44;;;;;;;2.85;1.48;;;17.30;59.90;;;;;;5115101;28;20636;-62
2023/10/23 06:19:12;;;;;;;3.53;1.50;;;17.20;60.50;;;;;;5114937;28;20217;-63
2023/10/23 06:21:39;;;;;;;2.28;1.52;;;17.30;59.80;;;;;;5115557;28;20200;-63
2023/10/23 06:24:07;;;;;;;5.20;1.80;;;17.30;59.90;;;;;;5114793;28;20710;-62
2023/10/23 06:26:34;;;;;;;4.07;1.80;;;17.20;59.70;;;;;;5113470;28;20276;-63
2023/10/23 06:29:00;;;;;;;3.13;2.10;;;17.20;59.70;;;;;;5115117;28;20286;-63
2023/10/23 06:31:27;;;;;;;3.60;1.50;;;17.20;59.80;;;;;;5114988;28;20185;-64
2023/10/23 06:33:54;;;;;;;3.30;2.08;;;17.30;59.90;;;;;;5114157;28;20225;-63
2023/10/23 06:36:23;;;;;;;4.80;1.65;;;17.20;59.70;;;;;;5114921;28;20292;-63
2023/10/23 06:38:49;;;;;;;2.63;1.70;;;17.30;59.80;;;;;;5114999;28;20548;-63
2023/10/23 06:41:16;;;;;;;4.45;1.70;;;17.30;59.90;;;;;;5114499;28;20536;-62
2023/10/23 06:43:43;;;;;;;2.50;1.60;;;17.20;59.70;;;;;;5114988;28;20217;-63
2023/10/23 06:46:10;;;;;;;3.10;1.50;;;17.20;59.70;;;;;;5114440;28;20685;-61
2023/10/23 06:48:44;;;;;;;4.85;1.63;;;17.20;59.70;;;;;;5113937;28;20233;-63
2023/10/23 06:51:11;;;;;;;3.40;1.75;;;17.20;59.70;;;;;;5114716;28;20194;-62
2023/10/23 06:53:39;;;;;;;4.38;1.73;;;17.20;59.70;;;;;;5114813;28;20299;-62
2023/10/23 06:56:06;;;;;;;7.18;1.83;;;17.20;59.70;;;;;;5112910;28;20185;-63
2023/10/23 06:58:33;;;;;;;2.40;1.40;;;17.20;59.70;;;;;;5103084;28;20721;-63
2023/10/23 07:01:07;;;;;;;5.18;1.70;;;17.20;59.70;;;;;;5110998;28;20197;-63
2023/10/23 07:03:34;;;;;;;3.65;1.60;;;17.20;59.70;;;;;;5105119;28;20241;-60
2023/10/23 07:06:05;;;;;;;4.25;1.73;;;17.30;59.70;;;;;;5093982;28;20289;-60
2023/10/23 07:08:32;;;;;;;4.18;1.85;;;17.20;59.70;;;;;;5096731;28;20225;-62
2023/10/23 07:11:16;;;;;;;3.20;1.50;;;17.30;59.80;;;;;;5087318;28;20273;-61
2023/10/23 07:13:53;;;;;;;3.97;1.98;;;17.30;59.80;;;;;;5105368;28;20221;-62
2023/10/23 07:16:21;;;;;;;4.35;1.70;;;17.30;59.80;;;;;;5038596;28;20366;-61
2023/10/23 07:18:48;;;;;;;3.65;1.88;;;17.30;59.80;;;;;;5091528;28;20210;-63
2023/10/23 07:21:15;;;;;;;5.40;2.00;;;17.40;60.00;;;;;;5094754;28;20267;-63
2023/10/23 07:23:42;;;;;;;6.57;2.00;;;17.40;60.10;;;;;;5102391;28;20325;-63
2023/10/23 07:26:12;;;;;;;3.25;1.50;;;17.40;60.20;;;;;;5094967;28;20567;-63
2023/10/23 07:28:40;;;;;;;3.45;1.60;;;17.40;60.10;;;;;;5095849;28;20229;-60
2023/10/23 07:31:08;;;;;;;9.93;1.90;;;17.50;60.10;;;;;;5099258;28;20273;-62
2023/10/23 07:33:36;;;;;;;5.70;1.70;;;17.50;60.00;;;;;;5096401;28;20651;-63
2023/10/23 07:36:05;;;;;;;4.03;1.80;;;17.50;60.00;;;;;;5092591;28;20197;-61
2023/10/23 07:38:36;;;;;;;4.07;1.88;;;17.60;60.20;;;;;;5097785;28;20229;-62
2023/10/23 07:41:04;;;;;;;3.95;1.95;;;17.50;60.20;;;;;;5098452;28;20202;-63
2023/10/23 07:43:50;;;;;;;3.60;1.70;;;17.60;60.20;;;;;;5091511;28;20225;-62
2023/10/23 07:46:25;;;;;;;7.68;2.35;;;17.60;60.30;;;;;;5096765;28;20189;-59
2023/10/23 07:49:01;;;;;;;9.38;1.73;;;17.60;60.30;;;;;;5091718;28;20229;-62
2023/10/23 07:51:30;;;;;;;4.10;1.70;;;17.60;60.30;;;;;;5089906;28;20326;-62
2023/10/23 07:53:58;;;;;;;6.72;1.98;;;17.60;60.30;;;;;;5093339;28;20252;-61
2023/10/23 07:56:38;;;;;;;7.93;2.00;;;17.70;60.60;;;;;;5089472;28;20251;-61
2023/10/23 07:59:08;;;;;;;8.57;2.10;;;17.70;60.40;;;;;;5100646;28;20225;-61
2023/10/23 08:01:35;;;;;;;6.18;2.20;;;17.70;60.30;;;;;;5090163;28;20206;-60
2023/10/23 08:04:03;;;;;;;26.95;2.35;;;17.70;60.40;;;;;;5090652;28;20214;-64
2023/10/23 08:06:31;;;;;;;8.32;1.60;;;17.70;60.30;;;;;;5093190;28;20271;-62
2023/10/23 08:09:53;;;;;;;5.05;1.90;;;17.70;60.20;;;;;;5096097;28;20251;-60
2023/10/23 08:12:23;;;;;;;5.32;1.90;;;17.70;60.20;;;;;;5007952;28;20271;-58
2023/10/23 08:14:51;;;;;;;10.18;2.00;;;17.70;60.30;;;;;;5016668;28;20227;-63
2023/10/23 08:17:19;;;;;;;6.63;2.30;;;17.80;60.70;;;;;;5015657;28;20201;-61
2023/10/23 08:19:46;;;;;;;3.75;1.77;;;17.80;60.70;;;;;;5017999;28;20374;-60
2023/10/23 08:22:44;;;;;;;4.05;1.70;;;17.80;60.50;;;;;;5008191;28;20212;-60
2023/10/23 08:25:19;;;;;;;5.43;1.80;;;17.80;61.40;;;;;;5023884;28;20220;-59
2023/10/23 08:27:51;;;;;;;3.88;1.77;;;17.90;60.60;;;;;;5027122;28;20770;-61
2023/10/23 08:30:20;;;;;;;4.63;2.00;;;17.90;60.60;;;;;;5024339;28;20247;-61
2023/10/23 08:32:47;;;;;;;6.53;1.80;;;17.90;60.40;;;;;;5027287;28;20619;-59
2023/10/23 08:35:15;;;;;;;5.80;1.60;;;17.90;60.20;;;;;;5016016;28;20241;-61
2023/10/23 08:37:44;;;;;;;5.85;1.77;;;17.90;60.10;;;;;;5012082;28;20212;-60
2023/10/23 08:40:12;;;;;;;4.30;1.67;;;17.90;60.00;;;;;;5014348;28;20228;-58
2023/10/23 08:42:39;;;;;;;7.38;1.70;;;18.00;60.30;;;;;;5016273;28;20659;-61
2023/10/23 08:45:07;;;;;;;3.72;1.55;;;18.00;61.00;;;;;;5008335;28;20231;-62
2023/10/23 08:50:17;;;;;;;12.15;2.00;;;18.00;60.10;;;;;;5083405;28;20225;-63
2023/10/23 08:52:46;;;;;;;5.47;1.63;;;17.90;60.10;;;;;;5094043;28;20182;-60
2023/10/23 08:55:14;;;;;;;6.20;1.60;;;18.00;60.20;;;;;;5093748;28;20249;-63
2023/10/23 08:57:47;;;;;;;5.22;1.60;;;17.90;60.10;;;;;;5094267;28;20197;-62
2023/10/23 09:00:15;;;;;;;6.75;1.80;;;17.90;60.00;;;;;;5106558;28;20217;-63
2023/10/23 09:02:44;;;;;;;4.97;1.88;;;18.00;60.20;;;;;;5114665;28;20277;-62
2023/10/23 09:05:11;;;;;;;5.05;1.75;;;18.00;60.20;;;;;;5094979;28;20209;-63
2023/10/23 09:07:39;;;;;;;6.60;1.70;;;18.00;60.10;;;;;;5094004;28;20196;-59
2023/10/23 09:10:07;;;;;;;5.50;1.92;;;18.00;60.10;;;;;;5093777;28;20222;-62
2023/10/23 09:12:41;;;;;;;4.03;1.80;;;18.00;60.20;;;;;;5093487;28;20194;-62
2023/10/23 09:15:15;;;;;;;4.93;1.80;;;18.00;60.30;;;;;;5094120;28;20260;-63
2023/10/23 09:17:45;;;;;;;4.53;1.77;;;18.00;60.20;;;;;;5112347;28;20185;-61
2023/10/23 09:20:26;;;;;;;3.63;1.75;;;18.00;60.30;;;;;;5114233;28;20224;-61
2023/10/23 09:25:39;;;;;;;3.60;1.50;;;18.00;60.40;;;;;;5030601;28;20237;-62
2023/10/23 09:28:12;;;;;;;5.57;1.70;;;18.00;60.40;;;;;;5028025;28;20235;-62
2023/10/23 09:30:49;;;;;;;6.40;1.83;;;18.00;60.50;;;;;;5028033;28;20252;-62
2023/10/23 09:33:20;;;;;;;4.50;1.85;;;18.10;60.60;;;;;;5023008;28;20272;-61
2023/10/23 09:35:50;;;;;;;9.80;1.80;;;18.10;60.50;;;;;;4996371;28;20310;-64
2023/10/23 09:38:18;;;;;;;5.55;2.00;;;18.10;60.40;;;;;;4990972;28;20225;-61
2023/10/23 09:40:46;;;;;;;4.60;1.70;;;18.10;60.40;;;;;;4990737;28;20747;-61
2023/10/23 09:43:14;;;;;;;6.20;2.00;;;18.10;60.30;;;;;;4991332;28;20213;-63
2023/10/23 09:45:43;;;;;;;5.90;2.08;;;18.10;60.30;;;;;;4990223;28;20228;-63
2023/10/23 09:48:12;;;;;;;6.35;2.13;;;18.10;60.30;;;;;;4990755;28;20210;-60
2023/10/23 09:50:44;;;;;;;6.20;2.15;;;18.10;60.30;;;;;;4991133;28;20220;-62
2023/10/23 09:53:13;;;;;;;3.50;1.55;;;18.20;60.40;;;;;;4993406;28;20237;-62
2023/10/23 09:55:45;;;;;;;6.53;1.90;;;18.20;60.30;;;;;;5000792;28;20227;-63
2023/10/23 09:58:17;;;;;;;11.02;2.38;;;18.20;60.30;;;;;;5052824;28;20231;-61
2023/10/23 10:00:47;;;;;;;4.63;1.88;;;18.20;60.30;;;;;;5052170;28;20234;-61
2023/10/23 10:06:45;;;;;;;5.18;1.95;;;18.20;60.10;;;;;;5058619;28;20327;-63
2023/10/23 10:09:14;;;;;;;7.20;2.10;;;18.20;60.10;;;;;;5051689;28;20246;-62
2023/10/23 10:11:44;;;;;;;7.38;1.67;;;18.20;60.00;;;;;;5052693;28;20199;-60
2023/10/23 10:14:13;;;;;;;5.70;2.20;;;18.20;59.90;;;;;;5067264;28;20269;-60
2023/10/23 10:16:40;;;;;;;7.72;2.15;;;18.20;59.80;;;;;;5071821;28;20683;-60
2023/10/23 10:19:08;;;;;;;4.57;1.77;;;18.20;59.80;;;;;;5072368;28;20268;-60
2023/10/23 10:21:46;;;;;;;3.97;1.70;;;18.20;59.70;;;;;;5072449;28;20294;-63
2023/10/23 10:24:15;;;;;;;9.80;2.25;;;18.20;59.70;;;;;;5071775;28;20226;-62
2023/10/23 10:26:43;;;;;;;5.20;2.08;;;18.20;59.70;;;;;;5072456;28;20191;-59
2023/10/23 10:29:10;;;;;;;6.47;1.90;;;18.20;59.70;;;;;;5069185;28;20327;-63
2023/10/23 10:32:05;;;;;;;2.15;1.50;;;18.20;59.60;;;;;;5071834;28;20191;-63
2023/10/23 10:34:34;;;;;;;3.95;1.83;;;18.20;59.60;;;;;;5099890;28;20233;-59
2023/10/23 10:37:05;;;;;;;6.70;1.98;;;18.20;59.60;;;;;;5112682;28;20212;-62
2023/10/23 10:40:14;;;;;;;5.10;1.88;;;18.20;59.60;;;;;;5111860;28;20222;-61
2023/10/23 10:42:42;;;;;;;3.50;1.70;;;18.20;59.60;;;;;;5082204;28;20201;-59
2023/10/23 10:45:18;;;;;;;2.78;1.55;;;18.20;59.60;;;;;;5112110;28;20225;-63
2023/10/23 10:47:52;;;;;;;6.47;1.85;;;18.20;59.60;;;;;;5091761;28;20193;-61
2023/10/23 10:50:34;;;;;;;5.95;1.88;;;18.10;59.40;;;;;;5097606;28;20233;-62
2023/10/23 10:58:27;;;;;;;4.07;1.70;;;18.10;59.50;;;;;;5044378;28;20203;-62
2023/10/23 11:00:54;;;;;;;4.68;1.60;;;18.20;59.50;;;;;;5048792;28;20294;-60
2023/10/23 11:03:22;;;;;;;3.78;1.50;;;18.20;59.50;;;;;;5049452;28;20214;-62
2023/10/23 11:05:49;;;;;;;3.95;1.60;;;18.10;59.40;;;;;;5032452;28;20298;-61
2023/10/23 11:08:17;;;;;;;5.15;1.73;;;18.20;59.50;;;;;;5027562;28;20284;-62
2023/10/23 11:10:47;;;;;;;4.13;2.08;;;18.20;59.50;;;;;;5028229;28;20768;-62
2023/10/23 11:13:15;;;;;;;5.85;1.90;;;18.20;59.50;;;;;;5044966;28;20195;-60
2023/10/23 11:15:42;;;;;;;3.65;1.83;;;18.10;59.30;;;;;;5032799;28;20380;-61
2023/10/23 11:18:10;;;;;;;3.17;1.73;;;18.20;59.40;;;;;;5033699;28;20278;-60
2023/10/23 11:20:37;;;;;;;6.78;1.67;;;18.10;59.30;;;;;;5047989;28;20751;-61
2023/10/23 11:23:08;;;;;;;5.97;1.60;;;18.20;59.40;;;;;;5048414;28;20239;-60
2023/10/23 11:25:36;;;;;;;5.85;1.50;;;18.10;59.30;;;;;;5047412;28;20227;-61
2023/10/23 11:28:07;;;;;;;3.50;1.70;;;18.20;59.40;;;;;;5033396;28;20263;-63
2023/10/23 11:30:45;;;;;;;5.10;1.83;;;18.20;59.40;;;;;;5028065;28;20734;-63
2023/10/23 11:33:13;;;;;;;4.82;1.60;;;18.20;59.30;;;;;;5027968;28;20322;-62
2023/10/23 11:35:41;;;;;;;3.53;1.58;;;18.20;59.30;;;;;;5057691;28;20221;-60
2023/10/23 11:38:13;;;;;;;4.95;1.60;;;18.20;59.30;;;;;;5091492;28;20320;-61
2023/10/23 11:40:42;;;;;;;3.17;1.67;;;18.20;59.40;;;;;;5090082;28;20221;-60
2023/10/23 11:44:03;;;;;;;4.57;1.90;;;18.20;59.30;;;;;;5092384;28;20281;-62
2023/10/23 11:46:33;;;;;;;4.70;1.90;;;18.20;59.30;;;;;;5089942;28;20201;-63
2023/10/23 11:49:01;;;;;;;3.83;1.70;;;18.20;59.40;;;;;;5109631;28;20264;-62
2023/10/23 11:51:28;;;;;;;6.50;2.20;;;18.20;59.40;;;;;;5110531;28;20259;-62
2023/10/23 11:54:17;;;;;;;6.32;1.63;;;18.20;59.40;;;;;;5094590;28;20270;-60
2023/10/23 11:56:52;;;;;;;5.88;1.92;;;18.20;59.40;;;;;;5106390;28;20292;-60
2023/10/23 11:59:20;;;;;;;5.40;1.77;;;18.20;59.40;;;;;;5103185;28;20213;-61
2023/10/23 12:01:50;;;;;;;5.18;1.70;;;18.20;59.40;;;;;;5109239;28;20197;-62
2023/10/23 12:04:18;;;;;;;3.25;1.65;;;18.20;59.30;;;;;;5111632;28;20217;-61
2023/10/23 12:06:45;;;;;;;3.10;1.40;;;18.20;59.30;;;;;;5075148;28;20826;-58
2023/10/23 12:09:13;;;;;;;7.40;1.73;;;18.20;59.20;;;;;;5089138;28;20814;-62
2023/10/23 12:11:43;;;;;;;6.97;2.08;;;18.20;59.30;;;;;;5100655;28;20194;-61
2023/10/23 12:14:11;;;;;;;5.70;1.60;;;18.20;59.10;;;;;;5096786;28;20217;-58
2023/10/23 12:16:39;;;;;;;4.10;1.95;;;18.30;59.30;;;;;;5091257;28;20222;-61
2023/10/23 12:19:09;;;;;;;5.53;1.70;;;18.30;59.40;;;;;;5099244;28;20221;-60
2023/10/23 12:21:37;;;;;;;7.68;1.65;;;18.30;59.30;;;;;;5093918;28;20190;-62
2023/10/23 12:24:43;;;;;;;5.50;1.42;;;18.30;59.40;;;;;;5086348;28;20221;-61
2023/10/23 12:27:11;;;;;;;2.88;1.52;;;18.30;59.40;;;;;;4999720;28;20216;-58
2023/10/23 12:30:16;;;;;;;6.13;2.00;;;18.30;59.30;;;;;;5013883;28;20228;-61
2023/10/23 12:32:46;;;;;;;3.50;1.60;;;18.40;59.40;;;;;;5018575;28;20218;-61
2023/10/23 12:35:14;;;;;;;4.05;1.70;;;18.30;59.20;;;;;;5015846;28;20250;-59
2023/10/23 12:38:16;;;;;;;6.88;1.60;;;18.40;59.10;;;;;;5012657;28;20296;-61
2023/10/23 12:40:46;;;;;;;8.35;1.63;;;18.40;59.10;;;;;;5007121;28;20309;-60
2023/10/23 12:43:13;;;;;;;3.05;1.65;;;18.40;59.20;;;;;;5015780;28;20196;-60
2023/10/23 12:45:40;;;;;;;5.05;1.45;;;18.40;59.10;;;;;;5015114;28;20233;-59
2023/10/23 12:48:10;;;;;;;4.05;1.88;;;18.40;59.10;;;;;;5013568;28;20203;-60
2023/10/23 12:53:20;;;;;;;6.05;1.85;;;18.40;59.70;;;;;;4982857;28;20230;-62
2023/10/23 12:56:10;;;;;;;6.93;1.60;;;18.40;59.00;;;;;;5004721;28;20221;-62
2023/10/23 12:59:06;;;;;;;7.60;1.83;;;18.40;59.00;;;;;;5064601;28;20275;-61
2023/10/23 13:04:21;;;;;;;5.47;2.00;;;18.50;59.20;;;;;;5032464;28;20613;-61
2023/10/23 13:07:03;;;;;;;;;;;;;;;;;;;;;
2023/10/23 13:09:31;;;;;;;4.90;1.95;;;18.50;59.20;;;;;;5029667;28;20856;-60
2023/10/23 13:11:59;;;;;;;8.88;1.95;;;18.50;59.20;;;;;;5035695;28;20195;-59
2023/10/23 13:14:26;;;;;;;4.47;1.67;;;18.50;59.10;;;;;;5038773;28;20223;-62
2023/10/23 13:16:55;;;;;;;3.33;1.70;;;18.50;59.10;;;;;;5035678;28;20196;-62
2023/10/23 13:19:22;;;;;;;7.65;1.70;;;18.50;59.10;;;;;;5032917;28;20216;-63